Time;durP1;ratioP1;P1;durP2;ratioP2;P2;SDS_P1;SDS_P2;PMS_P1;PMS_P2;Temp;Humidity;BMP_temperature;BMP_pressure;BME280_temperature;BME280_humidity;BME280_pressure;Samples;Min_cycle;Max_cycle;Signal;HPM_P1;HPM_P2
2024/02/24 00:00:50;;;;;;;6.40;2.08;;;;;;;2.36;73.81;97564.16;5045639;28;20139;-49
2024/02/24 00:03:16;;;;;;;5.45;2.15;;;;;;;2.35;74.37;97562.44;5045577;28;20053;-44
2024/02/24 00:05:45;;;;;;;4.43;2.40;;;;;;;2.31;74.58;97565.06;5045485;28;20044;-47
2024/02/24 00:08:12;;;;;;;3.85;1.83;;;;;;;2.29;73.73;97569.31;5046238;28;20486;-45
2024/02/24 00:10:39;;;;;;;5.10;2.38;;;;;;;2.28;74.76;97562.53;5039087;28;20045;-48
2024/02/24 00:13:07;;;;;;;4.13;2.40;;;;;;;2.26;74.20;97560.84;5043188;28;20049;-43
2024/02/24 00:15:36;;;;;;;5.03;2.35;;;;;;;2.25;74.52;97561.69;5046620;28;20060;-44
2024/02/24 00:18:03;;;;;;;5.72;2.65;;;;;;;2.23;74.61;97563.44;5044271;28;20064;-45
2024/02/24 00:20:30;;;;;;;7.20;2.30;;;;;;;2.22;74.12;97575.34;5045582;28;20139;-49
2024/02/24 00:22:57;;;;;;;6.68;2.85;;;;;;;2.20;75.40;97577.09;5042833;28;20505;-46
2024/02/24 00:25:24;;;;;;;6.82;3.20;;;;;;;2.19;74.48;97577.91;5046556;28;20497;-50
2024/02/24 00:27:51;;;;;;;6.90;2.50;;;;;;;2.18;74.75;97581.34;5039225;28;20051;-49
2024/02/24 00:30:18;;;;;;;6.35;2.50;;;;;;;2.18;74.78;97586.44;5041969;28;20409;-46
2024/02/24 00:32:46;;;;;;;7.07;3.72;;;;;;;2.15;74.86;97586.47;5047145;28;20045;-45
2024/02/24 00:35:13;;;;;;;6.95;3.13;;;;;;;2.13;74.13;97588.22;5039536;28;20140;-43
2024/02/24 00:37:40;;;;;;;8.27;3.15;;;;;;;2.13;75.44;97590.75;5038287;28;20044;-45
2024/02/24 00:40:09;;;;;;;8.85;4.57;;;;;;;2.11;74.56;97605.22;5044526;28;20052;-48
2024/02/24 00:42:35;;;;;;;8.25;3.42;;;;;;;2.09;75.56;97601.88;5045773;28;20052;-46
2024/02/24 00:45:03;;;;;;;7.72;2.92;;;;;;;2.07;74.00;97611.22;5046185;28;20064;-48
2024/02/24 00:47:29;;;;;;;8.30;5.45;;;;;;;2.04;75.48;97607.84;5045906;28;20502;-45
2024/02/24 00:49:56;;;;;;;8.20;4.03;;;;;;;2.02;75.02;97606.16;5044946;28;20516;-43
2024/02/24 00:52:25;;;;;;;10.10;3.42;;;;;;;2.01;74.98;97609.56;5046102;28;20049;-47
2024/02/24 00:54:52;;;;;;;8.55;3.25;;;;;;;1.99;74.23;97616.41;5038224;28;20044;-46
2024/02/24 00:57:19;;;;;;;9.63;4.00;;;;;;;1.97;75.34;97618.97;5045197;28;20044;-47
2024/02/24 00:59:47;;;;;;;12.10;5.15;;;;;;;1.98;74.57;97614.69;5046476;28;20049;-44
2024/02/24 01:02:13;;;;;;;8.25;3.53;;;;;;;1.96;74.15;97617.25;5035427;28;20056;-44
2024/02/24 01:04:40;;;;;;;9.15;4.72;;;;;;;1.96;75.24;97621.53;5045633;28;20060;-47
2024/02/24 01:07:07;;;;;;;9.88;5.47;;;;;;;1.96;74.55;97611.31;5045778;28;20098;-44
2024/02/24 01:09:34;;;;;;;14.23;3.55;;;;;;;1.96;75.80;97611.31;5042454;28;20080;-46
2024/02/24 01:12:02;;;;;;;9.10;3.90;;;;;;;1.95;74.61;97615.56;5041714;28;20091;-44
2024/02/24 01:14:29;;;;;;;9.20;3.83;;;;;;;1.94;74.76;97618.97;5046019;28;20140;-48
2024/02/24 01:16:56;;;;;;;9.13;4.85;;;;;;;1.90;75.34;97613.03;5046065;28;20516;-43
2024/02/24 01:19:23;;;;;;;8.93;3.40;;;;;;;1.88;75.16;97614.78;5044094;28;20056;-43
2024/02/24 01:21:50;;;;;;;8.45;4.72;;;;;;;1.86;75.01;97615.66;5045657;28;20621;-48
2024/02/24 01:24:16;;;;;;;9.50;5.72;;;;;;;1.86;75.73;97615.66;5038436;28;20041;-45
2024/02/24 01:26:43;;;;;;;9.00;3.85;;;;;;;1.85;76.22;97619.03;5046018;28;20087;-47
2024/02/24 01:29:10;;;;;;;8.38;3.67;;;;;;;1.83;76.58;97615.66;5046173;28;20103;-46
2024/02/24 01:31:37;;;;;;;9.15;3.75;;;;;;;1.81;76.39;97613.13;5045705;28;20088;-43
2024/02/24 01:34:04;;;;;;;8.77;3.50;;;;;;;1.80;75.21;97619.91;5043214;28;20048;-47
2024/02/24 01:36:31;;;;;;;13.02;4.60;;;;;;;1.79;75.45;97619.94;5045726;28;20418;-48
2024/02/24 01:38:57;;;;;;;13.90;4.68;;;;;;;1.78;75.96;97631.84;5046031;28;20128;-44
2024/02/24 01:41:24;;;;;;;12.07;4.65;;;;;;;1.76;74.98;97636.09;5044820;28;20568;-54
2024/02/24 01:43:51;;;;;;;14.35;4.07;;;;;;;1.75;76.09;97639.53;5043383;28;20128;-48
2024/02/24 01:46:19;;;;;;;10.10;4.50;;;;;;;1.73;75.05;97636.16;5034452;28;20060;-45
2024/02/24 01:48:48;;;;;;;10.68;4.28;;;;;;;1.72;75.08;97644.63;5040608;28;20056;-46
2024/02/24 01:51:15;;;;;;;9.55;4.03;;;;;;;1.70;75.58;97635.31;5042963;28;20456;-48
2024/02/24 01:53:42;;;;;;;10.57;4.97;;;;;;;1.68;75.95;97650.63;5045701;28;20080;-47
2024/02/24 01:56:09;;;;;;;7.57;3.80;;;;;;;1.63;75.83;97645.56;5039783;28;20513;-47
2024/02/24 01:58:36;;;;;;;5.97;3.38;;;;;;;1.62;75.30;97648.13;5036556;28;20093;-43
2024/02/24 02:01:06;;;;;;;9.88;3.72;;;;;;;1.60;75.22;97649.81;5037999;28;20508;-44
2024/02/24 02:03:33;;;;;;;8.43;4.15;;;;;;;1.58;76.01;97657.47;5041088;28;20071;-42
2024/02/24 02:06:02;;;;;;;12.18;5.65;;;;;;;1.57;76.49;97658.34;5049913;28;20060;-44
2024/02/24 02:08:29;;;;;;;8.30;4.35;;;;;;;1.56;76.51;97658.34;5047369;28;20102;-44
2024/02/24 02:10:56;;;;;;;10.40;4.43;;;;;;;1.54;76.54;97656.66;5045538;28;20075;-45
2024/02/24 02:13:23;;;;;;;11.50;4.50;;;;;;;1.53;76.05;97657.50;5046904;28;20135;-42
2024/02/24 02:15:52;;;;;;;15.50;5.90;;;;;;;1.50;76.30;97654.97;5047105;28;20048;-47
2024/02/24 02:18:21;;;;;;;10.68;4.57;;;;;;;1.51;75.66;97655.81;5047220;28;20048;-45
2024/02/24 02:20:50;;;;;;;15.80;4.82;;;;;;;1.49;75.45;97652.44;5046600;28;20045;-44
2024/02/24 02:23:17;;;;;;;10.57;5.30;;;;;;;1.48;75.97;97651.56;5045020;28;20594;-45
2024/02/24 02:25:44;;;;;;;12.35;4.07;;;;;;;1.47;76.62;97655.00;5047439;28;20060;-45
2024/02/24 02:28:12;;;;;;;8.57;4.85;;;;;;;1.46;75.56;97653.31;5049435;28;20064;-53
2024/02/24 02:30:39;;;;;;;12.40;4.72;;;;;;;1.45;76.61;97645.66;5046184;28;20061;-47
2024/02/24 02:33:08;;;;;;;8.25;3.55;;;;;;;1.42;75.31;97646.53;5046997;28;20049;-44
2024/02/24 02:35:37;;;;;;;11.98;4.10;;;;;;;1.41;75.01;97649.91;5048212;28;20802;-44
2024/02/24 02:38:07;;;;;;;12.50;4.57;;;;;;;1.40;75.59;97640.56;5039919;28;20045;-44
2024/02/24 02:40:35;;;;;;;11.35;3.83;;;;;;;1.39;76.88;97643.97;5042388;28;20052;-44
2024/02/24 02:43:02;;;;;;;10.65;4.65;;;;;;;1.38;76.33;97642.25;5048417;28;20044;-44
2024/02/24 02:45:30;;;;;;;11.50;4.65;;;;;;;1.39;75.72;97646.53;5048471;28;20049;-44
2024/02/24 02:47:57;;;;;;;9.95;4.40;;;;;;;1.37;76.08;97643.13;5046857;28;20549;-43
2024/02/24 02:50:24;;;;;;;10.07;4.50;;;;;;;1.36;76.75;97638.88;5042515;28;20421;-51
2024/02/24 02:52:50;;;;;;;10.43;4.63;;;;;;;1.35;76.72;97649.94;5047788;28;20144;-45
2024/02/24 02:55:17;;;;;;;13.13;4.28;;;;;;;1.33;76.24;97647.41;5048189;28;20074;-45
2024/02/24 02:57:45;;;;;;;12.27;4.25;;;;;;;1.33;76.14;97646.53;5047411;28;20047;-46
2024/02/24 03:00:12;;;;;;;14.80;4.45;;;;;;;1.33;76.34;97641.44;5036872;28;20052;-48
2024/02/24 03:02:39;;;;;;;11.07;4.60;;;;;;;1.32;76.88;97645.69;5044406;28;20148;-44
2024/02/24 03:05:06;;;;;;;12.40;4.78;;;;;;;1.31;76.31;97646.53;5043144;28;20110;-48
2024/02/24 03:07:32;;;;;;;8.57;4.28;;;;;;;1.31;76.25;97650.81;5047299;28;20056;-43
2024/02/24 03:09:59;;;;;;;15.45;5.43;;;;;;;1.28;76.62;97652.50;5047707;28;20055;-43
2024/02/24 03:12:27;;;;;;;10.68;4.45;;;;;;;1.27;76.78;97653.38;5047475;28;20573;-47
2024/02/24 03:14:55;;;;;;;12.60;4.82;;;;;;;1.26;75.31;97654.22;5048215;28;20053;-44
2024/02/24 03:17:22;;;;;;;9.15;4.47;;;;;;;1.25;76.97;97655.06;5047778;28;20063;-46
2024/02/24 03:19:49;;;;;;;11.73;4.55;;;;;;;1.25;76.93;97659.34;5047635;28;20049;-45
2024/02/24 03:22:15;;;;;;;11.65;4.72;;;;;;;1.23;76.80;97656.78;5044603;28;20063;-45
2024/02/24 03:24:43;;;;;;;14.35;4.55;;;;;;;1.22;77.25;97659.34;5043428;28;20053;-44
2024/02/24 03:27:11;;;;;;;12.27;4.93;;;;;;;1.21;75.64;97663.59;5047899;28;20052;-46
2024/02/24 03:29:38;;;;;;;11.38;4.40;;;;;;;1.20;76.00;97661.91;5047427;28;20059;-43
2024/02/24 03:32:05;;;;;;;17.38;6.00;;;;;;;1.20;76.41;97672.09;5047246;28;20712;-45
2024/02/24 03:34:32;;;;;;;13.85;4.35;;;;;;;1.17;77.21;97672.09;5045488;28;20053;-49
2024/02/24 03:36:59;;;;;;;9.63;4.38;;;;;;;1.17;76.54;97671.25;5047679;28;20045;-44
2024/02/24 03:39:25;;;;;;;15.07;5.30;;;;;;;1.15;76.84;97668.72;5047164;28;20037;-44
2024/02/24 03:41:52;;;;;;;12.13;5.07;;;;;;;1.15;75.68;97677.19;5047754;28;20053;-47
2024/02/24 03:44:19;;;;;;;10.55;4.20;;;;;;;1.14;77.39;97672.09;5047088;28;20051;-44
2024/02/24 03:46:46;;;;;;;11.80;3.75;;;;;;;1.14;76.87;97672.09;5041841;28;20146;-44
2024/02/24 03:49:12;;;;;;;12.98;4.68;;;;;;;1.13;75.94;97675.50;5046012;28;20053;-42
2024/02/24 03:51:39;;;;;;;15.35;3.70;;;;;;;1.12;76.15;97678.94;5036543;28;20045;-46
2024/02/24 03:54:06;;;;;;;12.15;5.38;;;;;;;1.11;77.31;97683.16;5045285;28;20053;-46
2024/02/24 03:56:33;;;;;;;9.20;3.70;;;;;;;1.10;76.28;97693.38;5046137;28;20715;-44
2024/02/24 03:58:59;;;;;;;9.68;3.92;;;;;;;1.09;76.92;97684.88;5043546;28;20491;-44
2024/02/24 04:01:28;;;;;;;12.98;6.03;;;;;;;1.09;77.31;97691.69;5038696;28;20041;-46
2024/02/24 04:03:55;;;;;;;10.82;4.53;;;;;;;1.08;76.97;97692.53;5040624;28;20048;-44
2024/02/24 04:06:22;;;;;;;13.90;4.38;;;;;;;1.06;76.54;97689.13;5034120;28;20068;-42
2024/02/24 04:08:49;;;;;;;12.25;4.10;;;;;;;1.05;76.33;97690.00;5043257;28;20056;-44
2024/02/24 04:11:15;;;;;;;10.98;3.97;;;;;;;1.02;77.29;97689.13;5042470;28;20120;-48
2024/02/24 04:13:42;;;;;;;5.78;3.17;;;;;;;1.02;77.04;97693.41;5040433;28;20056;-43
2024/02/24 04:16:09;;;;;;;6.53;3.22;;;;;;;1.00;76.42;97695.94;5045560;28;20056;-47
2024/02/24 04:18:35;;;;;;;8.68;3.70;;;;;;;1.00;76.62;97700.19;5046613;28;20049;-42
2024/02/24 04:21:02;;;;;;;8.07;3.67;;;;;;;0.99;76.66;97693.41;5046961;28;20418;-47
2024/02/24 04:23:29;;;;;;;8.02;4.32;;;;;;;0.99;77.71;97691.72;5044825;28;20056;-50
2024/02/24 04:25:56;;;;;;;10.13;4.75;;;;;;;0.99;77.25;97704.47;5043806;28;20114;-43
2024/02/24 04:28:23;;;;;;;8.05;2.78;;;;;;;0.98;76.43;97707.84;5040531;28;20049;-44
2024/02/24 04:30:49;;;;;;;9.80;3.45;;;;;;;0.98;77.08;97712.09;5044050;28;20049;-45
2024/02/24 04:33:17;;;;;;;12.30;3.50;;;;;;;0.99;77.24;97714.66;5044667;28;20048;-49
2024/02/24 04:35:44;;;;;;;10.68;4.53;;;;;;;0.98;77.19;97718.03;5041800;28;20557;-48
2024/02/24 04:38:11;;;;;;;8.55;3.15;;;;;;;0.97;77.31;97726.53;5036318;28;20056;-46
2024/02/24 04:40:39;;;;;;;7.22;3.55;;;;;;;0.97;76.60;97728.22;5042774;28;20049;-45
2024/02/24 04:43:05;;;;;;;13.48;3.90;;;;;;;0.96;76.58;97729.94;5044896;28;20048;-44
2024/02/24 04:45:35;;;;;;;10.05;3.28;;;;;;;0.96;76.85;97729.94;5039477;28;20569;-44
2024/02/24 04:48:02;;;;;;;9.10;4.38;;;;;;;0.96;77.43;97735.03;5046758;28;20048;-46
2024/02/24 04:50:29;;;;;;;7.97;3.22;;;;;;;0.94;77.45;97734.19;5039115;28;20749;-42
2024/02/24 04:52:56;;;;;;;9.85;2.95;;;;;;;0.94;76.55;97736.72;5045040;28;20045;-43
2024/02/24 04:55:24;;;;;;;5.68;2.05;;;;;;;0.93;76.71;97750.34;5035918;28;20049;-46
2024/02/24 04:57:51;;;;;;;7.40;3.40;;;;;;;0.93;77.80;97745.25;5043744;28;20052;-44
2024/02/24 05:00:18;;;;;;;9.77;3.35;;;;;;;0.93;76.60;97750.34;5045315;28;20118;-43
2024/02/24 05:02:44;;;;;;;6.35;3.10;;;;;;;0.91;77.48;97751.19;5045600;28;20059;-41
2024/02/24 05:05:12;;;;;;;6.97;2.55;;;;;;;0.92;77.58;97763.06;5045864;28;20063;-47
2024/02/24 05:07:39;;;;;;;8.68;3.42;;;;;;;0.92;77.47;97763.06;5045032;28;20051;-46
2024/02/24 05:10:06;;;;;;;7.10;3.30;;;;;;;0.90;77.76;97765.63;5044363;28;20051;-46
2024/02/24 05:12:34;;;;;;;9.80;3.67;;;;;;;0.89;76.78;97758.84;5033960;28;20557;-45
2024/02/24 05:15:00;;;;;;;7.13;2.92;;;;;;;0.87;77.41;97768.16;5045319;28;20057;-52
2024/02/24 05:17:27;;;;;;;8.55;3.95;;;;;;;0.85;77.21;97764.78;5045912;28;20107;-43
2024/02/24 05:19:54;;;;;;;7.05;3.08;;;;;;;0.86;78.25;97771.56;5039342;28;20053;-45
2024/02/24 05:22:21;;;;;;;7.00;3.72;;;;;;;0.87;76.71;97775.81;5045690;28;20044;-46
2024/02/24 05:24:47;;;;;;;5.38;2.72;;;;;;;0.85;77.83;97780.09;5046265;28;20098;-45
2024/02/24 05:27:14;;;;;;;6.95;3.60;;;;;;;0.84;77.96;97778.38;5046288;28;20088;-48
2024/02/24 05:29:45;;;;;;;6.80;2.95;;;;;;;0.84;77.88;97770.75;5046095;28;20041;-43
2024/02/24 05:32:16;;;;;;;8.75;3.03;;;;;;;0.84;77.84;97780.94;5043904;28;20061;-44
2024/02/24 05:34:43;;;;;;;6.32;3.35;;;;;;;0.84;76.80;97786.03;5036998;28;20042;-45
2024/02/24 05:37:10;;;;;;;6.72;3.10;;;;;;;0.83;77.05;97799.59;5045229;28;20072;-45
2024/02/24 05:39:38;;;;;;;10.00;4.20;;;;;;;0.84;78.04;97798.78;5047462;28;20053;-47
2024/02/24 05:42:06;;;;;;;6.32;3.28;;;;;;;0.84;77.97;97796.22;5049681;28;20057;-42
2024/02/24 05:44:33;;;;;;;12.88;3.75;;;;;;;0.84;76.99;97791.97;5048032;28;20048;-41
2024/02/24 05:46:59;;;;;;;8.30;2.53;;;;;;;0.84;77.89;97796.22;5045886;28;20046;-46
2024/02/24 05:49:26;;;;;;;6.40;2.58;;;;;;;0.84;77.47;97796.22;5039804;28;20045;-47
2024/02/24 05:51:53;;;;;;;9.98;2.47;;;;;;;0.85;76.98;97803.03;5049166;28;20053;-48
2024/02/24 05:54:20;;;;;;;3.50;1.67;;;;;;;0.84;78.01;97801.31;5049593;28;20049;-45
2024/02/24 05:56:46;;;;;;;8.10;2.85;;;;;;;0.83;77.36;97804.69;5049790;28;20049;-47
2024/02/24 05:59:13;;;;;;;4.82;2.67;;;;;;;0.83;77.74;97810.66;5044806;28;20040;-46
2024/02/24 06:01:40;;;;;;;4.38;2.08;;;;;;;0.82;77.42;97803.00;5037814;28;20095;-45
2024/02/24 06:04:06;;;;;;;5.18;2.63;;;;;;;0.82;77.40;97813.22;5042555;28;20079;-43
2024/02/24 06:06:33;;;;;;;5.07;2.45;;;;;;;0.80;78.00;97818.31;5049012;28;20510;-42
2024/02/24 06:09:00;;;;;;;5.25;4.30;;;;;;;0.80;77.59;97809.78;5041822;28;20069;-45
2024/02/24 06:11:27;;;;;;;6.00;2.67;;;;;;;0.77;77.52;97805.56;5046167;28;20049;-44
2024/02/24 06:13:54;;;;;;;7.18;3.30;;;;;;;0.73;77.81;97799.63;5045110;28;20677;-44
2024/02/24 06:16:20;;;;;;;10.60;3.38;;;;;;;0.69;76.72;97813.19;5048764;28;20600;-46
2024/02/24 06:18:47;;;;;;;5.95;3.13;;;;;;;0.66;77.57;97813.19;5048575;28;20119;-42
2024/02/24 06:21:14;;;;;;;5.43;3.08;;;;;;;0.64;76.64;97819.97;5041132;28;20053;-44
2024/02/24 06:23:40;;;;;;;7.00;2.63;;;;;;;0.63;77.03;97823.38;5048244;28;20049;-44
2024/02/24 06:26:07;;;;;;;8.50;5.07;;;;;;;0.62;77.21;97826.78;5047827;28;20056;-46
2024/02/24 06:28:35;;;;;;;7.43;3.50;;;;;;;0.63;76.86;97825.91;5048423;28;20073;-46
2024/02/24 06:31:02;;;;;;;8.27;4.22;;;;;;;0.63;77.83;97828.47;5037891;28;20071;-46
2024/02/24 06:33:28;;;;;;;6.95;4.43;;;;;;;0.63;77.70;97831.88;5050483;28;20045;-43
2024/02/24 06:35:55;;;;;;;11.45;2.50;;;;;;;0.62;77.61;97832.75;5043646;28;20057;-44
2024/02/24 06:38:22;;;;;;;4.85;2.35;;;;;;;0.62;78.10;97831.88;5042165;28;20041;-44
2024/02/24 06:40:51;;;;;;;9.60;2.90;;;;;;;0.62;77.65;97836.97;5045148;28;20911;-45
2024/02/24 06:43:17;;;;;;;5.43;2.20;;;;;;;0.60;77.85;97834.41;5043711;28;20060;-46
2024/02/24 06:45:44;;;;;;;5.30;2.97;;;;;;;0.59;77.25;97837.81;5044314;28;20044;-49
2024/02/24 06:48:11;;;;;;;8.57;3.78;;;;;;;0.58;77.46;97843.75;5049034;28;20160;-42
2024/02/24 06:50:38;;;;;;;5.95;2.22;;;;;;;0.57;76.88;97843.75;5047003;28;20436;-48
2024/02/24 06:53:04;;;;;;;4.55;2.03;;;;;;;0.56;77.93;97842.03;5048179;28;20458;-43
2024/02/24 06:55:31;;;;;;;5.53;2.92;;;;;;;0.51;77.44;97837.78;5044304;28;20048;-46
2024/02/24 06:57:58;;;;;;;6.72;2.50;;;;;;;0.48;77.43;97840.31;5044392;28;20071;-47
2024/02/24 07:00:26;;;;;;;6.82;3.70;;;;;;;0.46;77.96;97836.06;5041732;28;20061;-45
2024/02/24 07:02:54;;;;;;;10.10;5.28;;;;;;;0.45;77.56;97839.47;5047733;28;20056;-48
2024/02/24 07:05:23;;;;;;;11.15;6.47;;;;;;;0.43;77.18;97847.13;5047559;28;20052;-44
2024/02/24 07:07:50;;;;;;;5.78;3.80;;;;;;;0.42;77.19;97850.53;5045990;28;20077;-45
2024/02/24 07:10:16;;;;;;;9.15;4.88;;;;;;;0.40;77.32;97852.19;5048116;28;20128;-45
2024/02/24 07:12:44;;;;;;;6.55;4.70;;;;;;;0.40;77.25;97867.47;5041753;28;20052;-44
2024/02/24 07:15:11;;;;;;;7.50;2.67;;;;;;;0.40;77.05;97870.03;5048469;28;20414;-44
2024/02/24 07:17:38;;;;;;;6.70;2.72;;;;;;;0.39;76.84;97865.78;5045838;28;20096;-45
2024/02/24 07:20:06;;;;;;;6.72;2.53;;;;;;;0.40;76.96;97870.03;5045761;28;20348;-45
2024/02/24 07:22:33;;;;;;;5.97;3.25;;;;;;;0.40;76.81;97872.56;5042123;28;20481;-42
2024/02/24 07:24:59;;;;;;;6.15;2.85;;;;;;;0.41;76.91;97868.34;5047847;28;20045;-45
2024/02/24 07:27:26;;;;;;;6.47;3.38;;;;;;;0.43;77.81;97876.81;5047005;28;20049;-45
2024/02/24 07:29:53;;;;;;;10.55;5.32;;;;;;;0.43;77.10;97880.22;5048015;28;20051;-44
2024/02/24 07:32:20;;;;;;;6.30;4.10;;;;;;;0.45;77.74;97881.09;5046450;28;20053;-46
2024/02/24 07:34:47;;;;;;;4.63;2.55;;;;;;;0.48;77.17;97881.09;5041918;28;20045;-47
2024/02/24 07:37:14;;;;;;;5.70;2.45;;;;;;;0.53;77.69;97893.00;5046923;28;20060;-45
2024/02/24 07:39:43;;;;;;;6.55;3.10;;;;;;;0.58;77.58;97898.97;5046685;28;20049;-47
2024/02/24 07:42:10;;;;;;;6.28;3.42;;;;;;;0.60;77.59;97894.69;5044764;28;20080;-45
2024/02/24 07:44:39;;;;;;;8.52;3.72;;;;;;;0.64;77.62;97906.59;5045642;28;21174;-47
2024/02/24 07:47:07;;;;;;;10.52;3.13;;;;;;;0.68;77.44;97897.28;5045244;28;20057;-47
2024/02/24 07:49:35;;;;;;;13.27;5.65;;;;;;;0.72;77.82;97899.84;5040964;28;20046;-46
2024/02/24 07:52:04;;;;;;;10.65;5.15;;;;;;;0.78;76.89;97899.00;5046218;28;20056;-44
2024/02/24 07:54:30;;;;;;;11.15;2.72;;;;;;;0.84;77.25;97909.19;5047018;28;20387;-45
2024/02/24 07:56:57;;;;;;;10.32;5.50;;;;;;;0.90;77.35;97923.66;5052379;28;20131;-48
2024/02/24 07:59:24;;;;;;;9.68;3.83;;;;;;;0.97;77.66;97920.28;5043698;28;20128;-46
2024/02/24 08:01:51;;;;;;;4.60;2.28;;;;;;;1.05;77.52;97924.53;5039813;28;20052;-47
2024/02/24 08:04:17;;;;;;;5.82;2.10;;;;;;;1.18;76.92;97926.25;5045356;28;20124;-46
2024/02/24 08:06:44;;;;;;;9.18;2.63;;;;;;;1.59;77.74;97928.81;5040306;28;20053;-44
2024/02/24 08:09:15;;;;;;;8.82;4.53;;;;;;;2.25;77.87;97930.38;5042275;28;20048;-46
2024/02/24 08:11:42;;;;;;;11.63;2.67;;;;;;;3.08;77.98;97938.50;5044053;28;20498;-46
2024/02/24 08:14:09;;;;;;;8.27;2.72;;;;;;;3.92;76.62;97941.25;5046825;28;20135;-45
2024/02/24 08:16:36;;;;;;;10.48;3.63;;;;;;;4.75;75.79;97941.16;5045473;28;20057;-49
2024/02/24 08:19:05;;;;;;;6.35;3.42;;;;;;;5.63;76.17;97938.19;5039990;28;20172;-49
2024/02/24 08:21:36;;;;;;;7.00;3.42;;;;;;;6.52;74.60;97945.16;5045020;28;20140;-43
2024/02/24 08:24:07;;;;;;;7.40;3.22;;;;;;;7.43;72.76;97956.94;5047336;28;20061;-48
2024/02/24 08:26:39;;;;;;;10.45;3.22;;;;;;;8.21;71.41;97965.31;5045891;28;20041;-45
2024/02/24 08:29:09;;;;;;;7.72;3.47;;;;;;;9.04;70.35;97955.28;5036964;28;20053;-47
2024/02/24 08:31:38;;;;;;;9.70;4.82;;;;;;;9.83;69.60;97961.47;5044887;28;20806;-44
2024/02/24 08:34:05;;;;;;;11.82;4.00;;;;;;;10.58;68.42;97957.19;5034344;28;20081;-47
2024/02/24 08:36:32;;;;;;;7.32;3.50;;;;;;;11.28;67.00;97964.91;5046288;28;20049;-45
2024/02/24 08:39:00;;;;;;;5.03;3.05;;;;;;;12.02;66.70;97962.81;5046230;28;20064;-45
2024/02/24 08:41:31;;;;;;;6.03;2.88;;;;;;;12.88;65.30;97966.94;5046507;28;20473;-46
2024/02/24 08:44:01;;;;;;;5.20;2.70;;;;;;;13.66;64.19;97965.94;5041649;28;20486;-47
2024/02/24 08:46:28;;;;;;;6.07;2.85;;;;;;;14.29;62.23;97968.91;5042910;28;20532;-44
2024/02/24 08:48:56;;;;;;;6.32;2.88;;;;;;;14.85;61.87;97973.00;5045608;28;20497;-48
2024/02/24 08:51:24;;;;;;;5.18;2.15;;;;;;;15.48;60.49;97967.84;5046153;28;20094;-50
2024/02/24 08:53:50;;;;;;;5.80;2.08;;;;;;;16.09;59.91;97977.47;5043428;28;20094;-46
2024/02/24 08:56:20;;;;;;;24.92;9.27;;;;;;;16.61;58.08;97977.91;5044139;28;20160;-46
2024/02/24 08:58:48;;;;;;;5.97;2.88;;;;;;;17.03;57.27;97984.03;5043004;28;20569;-49
2024/02/24 09:01:15;;;;;;;3.30;1.77;;;;;;;17.36;56.72;97989.03;5040478;28;20041;-46
2024/02/24 09:03:42;;;;;;;10.48;3.78;;;;;;;17.70;56.41;97981.63;5044629;28;20419;-47
2024/02/24 09:06:09;;;;;;;4.97;1.80;;;;;;;18.01;55.56;97989.22;5043152;28;20787;-47
2024/02/24 09:08:39;;;;;;;3.42;1.60;;;;;;;18.33;55.08;97988.84;5043486;28;20049;-47
2024/02/24 09:11:06;;;;;;;7.75;3.53;;;;;;;18.74;54.98;97986.94;5046203;28;20052;-45
2024/02/24 09:13:32;;;;;;;15.82;5.43;;;;;;;19.19;54.14;97986.47;5050137;28;20120;-47
2024/02/24 09:15:59;;;;;;;11.25;5.85;;;;;;;19.65;53.08;97992.78;5047122;28;20712;-45
2024/02/24 09:18:27;;;;;;;5.32;2.28;;;;;;;20.13;52.10;97995.50;5055545;28;20089;-46
2024/02/24 09:20:54;;;;;;;2.85;1.20;;;;;;;20.40;50.80;97989.91;5049872;28;20055;-47
2024/02/24 09:23:56;;;;;;;3.72;1.65;;;;;;;20.73;50.06;97995.31;5047634;28;20053;-47
2024/02/24 09:26:24;;;;;;;3.63;1.95;;;;;;;21.04;49.31;98000.81;5048594;28;20048;-46
2024/02/24 09:28:50;;;;;;;3.63;1.92;;;;;;;21.30;48.95;98007.59;5048766;28;20106;-43
2024/02/24 09:31:17;;;;;;;2.80;1.70;;;;;;;21.63;48.25;98011.09;5045580;28;20053;-46
2024/02/24 09:33:44;;;;;;;3.90;1.88;;;;;;;21.86;46.89;98010.19;5048133;28;20163;-47
2024/02/24 09:36:11;;;;;;;5.20;2.30;;;;;;;22.05;46.27;98010.34;5044628;28;20041;-49
2024/02/24 09:38:37;;;;;;;20.13;6.25;;;;;;;22.26;46.29;98006.03;5049706;28;20059;-50
2024/02/24 09:41:07;;;;;;;7.55;2.90;;;;;;;22.56;46.13;98005.25;5048904;28;20048;-47
2024/02/24 09:43:34;;;;;;;2.97;1.45;;;;;;;22.93;45.27;98013.63;5046600;28;20041;-51
2024/02/24 09:46:00;;;;;;;3.72;1.55;;;;;;;23.14;44.74;98010.06;5044043;28;20131;-51
2024/02/24 09:48:29;;;;;;;4.40;2.60;;;;;;;23.31;43.96;98009.41;5049322;28;20048;-49
2024/02/24 09:50:59;;;;;;;3.40;3.00;;;;;;;23.46;43.50;98020.44;5049501;28;20621;-48
2024/02/24 09:53:26;;;;;;;5.05;1.73;;;;;;;23.56;43.53;98030.19;5049433;28;20040;-48
2024/02/24 09:55:53;;;;;;;3.92;2.33;;;;;;;23.70;43.47;98026.28;5048752;28;20051;-52
2024/02/24 09:58:22;;;;;;;4.68;1.90;;;;;;;23.90;42.43;98026.28;5045730;28;20063;-48
2024/02/24 10:00:52;;;;;;;3.83;1.80;;;;;;;23.91;40.84;98022.69;5045179;28;20476;-48
2024/02/24 10:03:21;;;;;;;3.42;1.88;;;;;;;23.96;41.05;98026.59;5042361;28;20048;-47
2024/02/24 10:05:49;;;;;;;3.33;1.50;;;;;;;23.98;41.12;98035.19;5048345;28;20064;-44
2024/02/24 10:08:16;;;;;;;5.50;1.48;;;;;;;24.01;41.03;98036.72;5047743;28;20045;-46
2024/02/24 10:10:43;;;;;;;4.35;1.48;;;;;;;24.09;40.68;98036.88;5042174;28;20136;-49
2024/02/24 10:13:10;;;;;;;5.07;3.28;;;;;;;24.25;40.78;98030.22;5042842;28;20755;-46
2024/02/24 10:15:37;;;;;;;3.00;1.55;;;;;;;24.21;39.94;98034.13;5040642;28;20061;-51
2024/02/24 10:18:04;;;;;;;2.45;1.27;;;;;;;24.15;40.60;98034.69;5043968;28;20060;-50
2024/02/24 10:20:31;;;;;;;5.05;1.45;;;;;;;24.17;40.40;98038.00;5039335;28;20045;-51
2024/02/24 10:22:58;;;;;;;5.00;1.75;;;;;;;24.04;39.54;98038.28;5042673;28;20041;-49
2024/02/24 10:25:24;;;;;;;4.00;1.58;;;;;;;24.08;40.59;98040.47;5048651;28;20049;-47
2024/02/24 10:27:51;;;;;;;4.35;1.95;;;;;;;24.26;40.53;98042.47;5048371;28;20106;-49
2024/02/24 10:30:19;;;;;;;3.38;1.73;;;;;;;24.37;40.12;98029.06;5047104;28;20080;-45
2024/02/24 10:32:52;;;;;;;6.63;2.40;;;;;;;24.49;39.89;98036.84;5047827;28;20747;-47
2024/02/24 10:35:19;;;;;;;4.07;1.63;;;;;;;24.63;39.22;98033.72;5048454;28;20056;-45
2024/02/24 10:37:48;;;;;;;5.20;2.50;;;;;;;24.72;39.02;98039.16;5044761;28;20054;-54
2024/02/24 10:40:35;;;;;;;7.95;2.88;;;;;;;24.84;38.86;98040.63;5046784;28;20041;-49
2024/02/24 10:43:03;;;;;;;6.88;1.92;;;;;;;24.83;38.05;98044.28;5048079;28;20091;-59
2024/02/24 10:45:30;;;;;;;4.85;1.88;;;;;;;24.79;38.43;98048.19;5048892;28;20049;-52
2024/02/24 10:47:58;;;;;;;4.90;1.52;;;;;;;24.75;38.18;98052.06;5048843;28;20106;-48
2024/02/24 10:50:25;;;;;;;6.30;2.10;;;;;;;24.72;37.72;98047.09;5045862;28;20046;-50
2024/02/24 10:52:54;;;;;;;5.65;1.92;;;;;;;24.60;37.85;98046.41;5048322;28;20072;-50
2024/02/24 10:55:23;;;;;;;3.97;1.20;;;;;;;24.59;37.94;98048.22;5046477;28;20048;-50
2024/02/24 10:57:52;;;;;;;3.85;2.08;;;;;;;24.55;37.79;98052.13;5045780;28;20048;-50
2024/02/24 11:00:35;;;;;;;4.85;2.40;;;;;;;24.47;37.34;98044.94;5041667;28;20049;-47
2024/02/24 11:03:04;;;;;;;4.82;1.98;;;;;;;24.24;37.17;98049.69;5046844;28;20063;-52
2024/02/24 11:05:34;;;;;;;4.30;1.58;;;;;;;23.98;36.24;98048.41;5048045;28;20049;-52
2024/02/24 11:08:01;;;;;;;6.85;2.35;;;;;;;23.53;37.16;98041.00;5044887;28;20060;-48
2024/02/24 11:10:33;;;;;;;3.35;1.30;;;;;;;22.94;37.20;98046.97;5047209;28;20489;-49
2024/02/24 11:13:03;;;;;;;3.92;1.60;;;;;;;22.28;37.88;98047.13;5040463;28;20040;-49
2024/02/24 11:15:29;;;;;;;7.40;1.92;;;;;;;21.68;38.62;98055.47;5039935;28;20060;-49
2024/02/24 11:17:57;;;;;;;5.10;1.60;;;;;;;21.17;38.79;98063.84;5045034;28;20048;-51
2024/02/24 11:23:21;;;;;;;5.05;1.60;;;;;;;20.27;39.46;98058.34;5028627;27;20391;-52
2024/02/24 11:26:08;;;;;;;7.47;2.20;;;;;;;19.76;40.19;98067.34;5003690;28;20053;-53
2024/02/24 11:28:38;;;;;;;3.38;2.17;;;;;;;19.31;40.82;98062.63;5002777;28;20046;-49
2024/02/24 11:31:05;;;;;;;5.20;2.22;;;;;;;19.00;41.54;98066.44;5002672;28;20148;-46
2024/02/24 11:33:37;;;;;;;2.75;1.50;;;;;;;18.67;41.42;98057.31;5003343;28;20062;-48
2024/02/24 11:36:05;;;;;;;5.63;2.03;;;;;;;18.37;42.04;98061.06;5029892;28;20056;-47
2024/02/24 11:38:33;;;;;;;4.00;1.23;;;;;;;18.08;42.16;98063.84;5003472;28;20081;-50
2024/02/24 11:41:04;;;;;;;3.65;1.42;;;;;;;17.76;42.62;98064.16;5002651;28;20129;-50